sensor_id;sensor_type;location;lat;lon;timestamp;temperature;humidity
6307;DHT22;3186;54.062;9.962;2023-07-20T00:01:15;15.90;99.90
6307;DHT22;3186;54.062;9.962;2023-07-20T00:03:41;15.80;99.90
6307;DHT22;3186;54.062;9.962;2023-07-20T00:06:07;15.80;99.90
6307;DHT22;3186;54.062;9.962;2023-07-20T00:08:33;15.80;99.90
6307;DHT22;3186;54.062;9.962;2023-07-20T00:10:59;15.80;99.90
6307;DHT22;3186;54.062;9.962;2023-07-20T00:13:25;15.80;99.90
6307;DHT22;3186;54.062;9.962;2023-07-20T00:15:51;15.80;99.90
6307;DHT22;3186;54.062;9.962;2023-07-20T00:18:17;15.80;99.90
6307;DHT22;3186;54.062;9.962;2023-07-20T00:20:47;15.80;99.90
6307;DHT22;3186;54.062;9.962;2023-07-20T00:23:13;15.80;99.90
6307;DHT22;3186;54.062;9.962;2023-07-20T00:25:39;15.70;99.90
6307;DHT22;3186;54.062;9.962;2023-07-20T00:28:04;15.70;99.90
6307;DHT22;3186;54.062;9.962;2023-07-20T00:30:30;15.70;99.90
6307;DHT22;3186;54.062;9.962;2023-07-20T00:32:56;15.70;99.90
6307;DHT22;3186;54.062;9.962;2023-07-20T00:35:22;15.70;99.90
6307;DHT22;3186;54.062;9.962;2023-07-20T00:37:48;15.70;99.90
6307;DHT22;3186;54.062;9.962;2023-07-20T00:40:14;15.60;99.90
6307;DHT22;3186;54.062;9.962;2023-07-20T00:42:39;15.60;99.90
6307;DHT22;3186;54.062;9.962;2023-07-20T00:45:06;15.60;99.90
6307;DHT22;3186;54.062;9.962;2023-07-20T00:47:32;15.60;99.90
6307;DHT22;3186;54.062;9.962;2023-07-20T00:49:58;15.60;99.90
6307;DHT22;3186;54.062;9.962;2023-07-20T00:52:25;15.70;99.90
6307;DHT22;3186;54.062;9.962;2023-07-20T00:54:52;15.70;99.90
6307;DHT22;3186;54.062;9.962;2023-07-20T00:57:23;15.60;99.90
6307;DHT22;3186;54.062;9.962;2023-07-20T00:59:49;15.60;99.90
6307;DHT22;3186;54.062;9.962;2023-07-20T01:02:16;15.60;99.90
6307;DHT22;3186;54.062;9.962;2023-07-20T01:04:42;15.50;99.90
6307;DHT22;3186;54.062;9.962;2023-07-20T01:10:26;15.60;99.90
6307;DHT22;3186;54.062;9.962;2023-07-20T01:12:55;15.60;99.90
6307;DHT22;3186;54.062;9.962;2023-07-20T01:15:22;15.60;99.90
6307;DHT22;3186;54.062;9.962;2023-07-20T01:17:47;15.60;99.90
6307;DHT22;3186;54.062;9.962;2023-07-20T01:20:14;15.50;99.90
6307;DHT22;3186;54.062;9.962;2023-07-20T01:23:14;15.50;99.90
6307;DHT22;3186;54.062;9.962;2023-07-20T01:26:11;15.50;99.90
6307;DHT22;3186;54.062;9.962;2023-07-20T01:31:26;15.50;99.90
6307;DHT22;3186;54.062;9.962;2023-07-20T01:33:56;15.50;99.90
6307;DHT22;3186;54.062;9.962;2023-07-20T01:36:24;15.50;99.90
6307;DHT22;3186;54.062;9.962;2023-07-20T01:38:52;15.40;99.90
6307;DHT22;3186;54.062;9.962;2023-07-20T01:41:18;15.40;99.90
6307;DHT22;3186;54.062;9.962;2023-07-20T01:43:45;15.40;99.90
6307;DHT22;3186;54.062;9.962;2023-07-20T01:46:11;15.40;99.90
6307;DHT22;3186;54.062;9.962;2023-07-20T01:48:37;15.30;99.90
6307;DHT22;3186;54.062;9.962;2023-07-20T01:51:03;15.30;99.90
6307;DHT22;3186;54.062;9.962;2023-07-20T01:53:28;15.30;99.90
6307;DHT22;3186;54.062;9.962;2023-07-20T01:55:54;15.30;99.90
6307;DHT22;3186;54.062;9.962;2023-07-20T01:58:20;15.30;99.90
6307;DHT22;3186;54.062;9.962;2023-07-20T02:00:46;15.30;99.90
6307;DHT22;3186;54.062;9.962;2023-07-20T02:03:12;15.30;99.90
6307;DHT22;3186;54.062;9.962;2023-07-20T02:05:38;15.20;99.90
6307;DHT22;3186;54.062;9.962;2023-07-20T02:08:04;15.20;99.90
6307;DHT22;3186;54.062;9.962;2023-07-20T02:10:30;15.20;99.90
6307;DHT22;3186;54.062;9.962;2023-07-20T02:12:56;15.20;99.90
6307;DHT22;3186;54.062;9.962;2023-07-20T02:15:22;15.20;99.90
6307;DHT22;3186;54.062;9.962;2023-07-20T02:17:50;15.20;99.90
6307;DHT22;3186;54.062;9.962;2023-07-20T02:20:16;15.20;99.90
6307;DHT22;3186;54.062;9.962;2023-07-20T02:22:43;15.20;99.90
6307;DHT22;3186;54.062;9.962;2023-07-20T02:25:09;15.20;99.90
6307;DHT22;3186;54.062;9.962;2023-07-20T02:27:35;15.20;99.90
6307;DHT22;3186;54.062;9.962;2023-07-20T02:30:01;15.20;99.90
6307;DHT22;3186;54.062;9.962;2023-07-20T02:32:28;15.20;99.90
6307;DHT22;3186;54.062;9.962;2023-07-20T02:34:54;15.20;99.90
6307;DHT22;3186;54.062;9.962;2023-07-20T02:39:53;15.20;99.90
6307;DHT22;3186;54.062;9.962;2023-07-20T02:42:19;15.20;99.90
6307;DHT22;3186;54.062;9.962;2023-07-20T02:44:48;15.20;99.90
6307;DHT22;3186;54.062;9.962;2023-07-20T02:47:14;15.10;99.90
6307;DHT22;3186;54.062;9.962;2023-07-20T02:49:39;15.20;99.90
6307;DHT22;3186;54.062;9.962;2023-07-20T02:52:05;15.10;99.90
6307;DHT22;3186;54.062;9.962;2023-07-20T02:54:31;15.20;99.90
6307;DHT22;3186;54.062;9.962;2023-07-20T02:56:57;15.20;99.90
6307;DHT22;3186;54.062;9.962;2023-07-20T02:59:22;15.10;99.90
6307;DHT22;3186;54.062;9.962;2023-07-20T03:01:48;15.20;99.90
6307;DHT22;3186;54.062;9.962;2023-07-20T03:04:14;15.20;99.90
6307;DHT22;3186;54.062;9.962;2023-07-20T03:06:39;15.10;99.90
6307;DHT22;3186;54.062;9.962;2023-07-20T03:09:05;15.20;99.90
6307;DHT22;3186;54.062;9.962;2023-07-20T03:11:32;15.80;99.90
6307;DHT22;3186;54.062;9.962;2023-07-20T03:13:59;15.20;99.90
6307;DHT22;3186;54.062;9.962;2023-07-20T03:16:25;15.10;99.90
6307;DHT22;3186;54.062;9.962;2023-07-20T03:18:52;15.90;99.90
6307;DHT22;3186;54.062;9.962;2023-07-20T03:21:18;15.10;99.90
6307;DHT22;3186;54.062;9.962;2023-07-20T03:23:44;15.10;99.90
6307;DHT22;3186;54.062;9.962;2023-07-20T03:26:10;15.10;99.90
6307;DHT22;3186;54.062;9.962;2023-07-20T03:28:36;15.00;99.90
6307;DHT22;3186;54.062;9.962;2023-07-20T03:31:03;15.10;99.90
6307;DHT22;3186;54.062;9.962;2023-07-20T03:33:32;15.10;99.90
6307;DHT22;3186;54.062;9.962;2023-07-20T03:35:59;15.00;99.90
6307;DHT22;3186;54.062;9.962;2023-07-20T03:38:25;15.10;99.90
6307;DHT22;3186;54.062;9.962;2023-07-20T03:40:56;15.60;99.90
6307;DHT22;3186;54.062;9.962;2023-07-20T03:43:23;15.00;99.90
6307;DHT22;3186;54.062;9.962;2023-07-20T03:45:49;15.00;99.90
6307;DHT22;3186;54.062;9.962;2023-07-20T03:48:16;15.30;99.90
6307;DHT22;3186;54.062;9.962;2023-07-20T03:50:44;15.90;99.90
6307;DHT22;3186;54.062;9.962;2023-07-20T03:53:11;15.00;99.90
6307;DHT22;3186;54.062;9.962;2023-07-20T03:55:37;14.90;99.90
6307;DHT22;3186;54.062;9.962;2023-07-20T03:58:02;15.00;99.90
6307;DHT22;3186;54.062;9.962;2023-07-20T04:00:29;14.90;99.90
6307;DHT22;3186;54.062;9.962;2023-07-20T04:02:54;14.80;99.90
6307;DHT22;3186;54.062;9.962;2023-07-20T04:05:20;15.20;99.90
6307;DHT22;3186;54.062;9.962;2023-07-20T04:07:46;14.90;99.90
6307;DHT22;3186;54.062;9.962;2023-07-20T04:10:12;14.80;99.90
6307;DHT22;3186;54.062;9.962;2023-07-20T04:12:38;14.80;99.90
6307;DHT22;3186;54.062;9.962;2023-07-20T04:15:04;14.80;99.90
6307;DHT22;3186;54.062;9.962;2023-07-20T04:17:30;14.90;99.90
6307;DHT22;3186;54.062;9.962;2023-07-20T04:19:56;14.80;99.90
6307;DHT22;3186;54.062;9.962;2023-07-20T04:22:21;14.80;99.90
6307;DHT22;3186;54.062;9.962;2023-07-20T04:24:48;15.00;99.90
6307;DHT22;3186;54.062;9.962;2023-07-20T04:27:13;14.70;99.90
6307;DHT22;3186;54.062;9.962;2023-07-20T04:29:39;15.60;99.90
6307;DHT22;3186;54.062;9.962;2023-07-20T04:32:06;14.60;99.90
6307;DHT22;3186;54.062;9.962;2023-07-20T04:34:31;14.70;99.90
6307;DHT22;3186;54.062;9.962;2023-07-20T04:36:57;14.70;99.90
6307;DHT22;3186;54.062;9.962;2023-07-20T04:39:24;14.90;99.90
6307;DHT22;3186;54.062;9.962;2023-07-20T04:41:50;14.60;99.90
6307;DHT22;3186;54.062;9.962;2023-07-20T04:44:17;14.70;99.90
6307;DHT22;3186;54.062;9.962;2023-07-20T04:46:42;15.80;99.90
6307;DHT22;3186;54.062;9.962;2023-07-20T04:49:08;16.80;99.90
6307;DHT22;3186;54.062;9.962;2023-07-20T04:51:38;14.70;99.90
6307;DHT22;3186;54.062;9.962;2023-07-20T04:54:04;14.60;99.90
6307;DHT22;3186;54.062;9.962;2023-07-20T04:56:34;14.70;99.90
6307;DHT22;3186;54.062;9.962;2023-07-20T04:59:01;14.60;99.90
6307;DHT22;3186;54.062;9.962;2023-07-20T05:01:27;15.70;99.90
6307;DHT22;3186;54.062;9.962;2023-07-20T05:03:53;15.40;99.90
6307;DHT22;3186;54.062;9.962;2023-07-20T05:06:19;14.70;99.90
6307;DHT22;3186;54.062;9.962;2023-07-20T05:08:45;15.00;99.90
6307;DHT22;3186;54.062;9.962;2023-07-20T05:11:11;14.50;99.90
6307;DHT22;3186;54.062;9.962;2023-07-20T05:13:38;15.10;99.90
6307;DHT22;3186;54.062;9.962;2023-07-20T05:16:04;14.70;99.90
6307;DHT22;3186;54.062;9.962;2023-07-20T05:18:30;14.70;99.90
6307;DHT22;3186;54.062;9.962;2023-07-20T05:20:56;14.70;99.90
6307;DHT22;3186;54.062;9.962;2023-07-20T05:23:22;14.70;99.90
6307;DHT22;3186;54.062;9.962;2023-07-20T05:25:58;14.80;99.90
6307;DHT22;3186;54.062;9.962;2023-07-20T05:28:25;15.30;99.90
6307;DHT22;3186;54.062;9.962;2023-07-20T05:30:51;14.80;99.90
6307;DHT22;3186;54.062;9.962;2023-07-20T05:33:22;14.90;99.90
6307;DHT22;3186;54.062;9.962;2023-07-20T05:35:48;15.00;99.90
6307;DHT22;3186;54.062;9.962;2023-07-20T05:38:14;15.10;99.90
6307;DHT22;3186;54.062;9.962;2023-07-20T05:40:44;15.60;99.90
6307;DHT22;3186;54.062;9.962;2023-07-20T05:43:10;15.30;99.90
6307;DHT22;3186;54.062;9.962;2023-07-20T05:45:36;15.40;99.90
6307;DHT22;3186;54.062;9.962;2023-07-20T05:48:02;16.30;99.90
6307;DHT22;3186;54.062;9.962;2023-07-20T05:50:28;15.60;99.90
6307;DHT22;3186;54.062;9.962;2023-07-20T05:52:54;15.90;99.90
6307;DHT22;3186;54.062;9.962;2023-07-20T05:55:20;15.80;99.90
6307;DHT22;3186;54.062;9.962;2023-07-20T05:57:46;15.90;99.90
6307;DHT22;3186;54.062;9.962;2023-07-20T06:00:12;16.50;99.90
6307;DHT22;3186;54.062;9.962;2023-07-20T06:02:38;16.20;99.90
6307;DHT22;3186;54.062;9.962;2023-07-20T06:05:08;17.20;99.90
6307;DHT22;3186;54.062;9.962;2023-07-20T06:07:38;16.40;99.90
6307;DHT22;3186;54.062;9.962;2023-07-20T06:10:05;16.70;99.90
6307;DHT22;3186;54.062;9.962;2023-07-20T06:12:33;16.60;99.90
6307;DHT22;3186;54.062;9.962;2023-07-20T06:15:04;16.80;99.90
6307;DHT22;3186;54.062;9.962;2023-07-20T06:17:30;17.00;99.90
6307;DHT22;3186;54.062;9.962;2023-07-20T06:19:55;17.10;99.90
6307;DHT22;3186;54.062;9.962;2023-07-20T06:22:21;17.30;99.90
6307;DHT22;3186;54.062;9.962;2023-07-20T06:24:46;17.40;99.90
6307;DHT22;3186;54.062;9.962;2023-07-20T06:27:12;17.60;99.90
6307;DHT22;3186;54.062;9.962;2023-07-20T06:29:38;18.10;99.90
6307;DHT22;3186;54.062;9.962;2023-07-20T06:32:05;18.40;99.90
6307;DHT22;3186;54.062;9.962;2023-07-20T06:34:31;17.70;99.90
6307;DHT22;3186;54.062;9.962;2023-07-20T06:37:02;17.90;99.90
6307;DHT22;3186;54.062;9.962;2023-07-20T06:39:29;18.10;99.90
6307;DHT22;3186;54.062;9.962;2023-07-20T06:41:55;18.30;99.90
6307;DHT22;3186;54.062;9.962;2023-07-20T06:44:20;18.40;99.90
6307;DHT22;3186;54.062;9.962;2023-07-20T06:46:46;19.00;99.90
6307;DHT22;3186;54.062;9.962;2023-07-20T06:49:24;18.40;99.90
6307;DHT22;3186;54.062;9.962;2023-07-20T06:51:50;18.40;99.90
6307;DHT22;3186;54.062;9.962;2023-07-20T06:54:15;18.70;99.90
6307;DHT22;3186;54.062;9.962;2023-07-20T06:56:41;19.10;99.90
6307;DHT22;3186;54.062;9.962;2023-07-20T06:59:07;19.30;99.90
6307;DHT22;3186;54.062;9.962;2023-07-20T07:01:32;19.40;99.90
6307;DHT22;3186;54.062;9.962;2023-07-20T07:03:58;19.30;99.90
6307;DHT22;3186;54.062;9.962;2023-07-20T07:06:24;19.50;99.90
6307;DHT22;3186;54.062;9.962;2023-07-20T07:08:49;19.50;99.90
6307;DHT22;3186;54.062;9.962;2023-07-20T07:11:15;19.80;99.90
6307;DHT22;3186;54.062;9.962;2023-07-20T07:13:41;19.90;99.90
6307;DHT22;3186;54.062;9.962;2023-07-20T07:16:06;19.80;99.90
6307;DHT22;3186;54.062;9.962;2023-07-20T07:18:32;19.80;99.90
6307;DHT22;3186;54.062;9.962;2023-07-20T07:20:57;20.00;99.90
6307;DHT22;3186;54.062;9.962;2023-07-20T07:23:23;20.30;99.90
6307;DHT22;3186;54.062;9.962;2023-07-20T07:25:49;20.00;99.90
6307;DHT22;3186;54.062;9.962;2023-07-20T07:28:15;20.20;99.90
6307;DHT22;3186;54.062;9.962;2023-07-20T07:30:40;20.10;99.90
6307;DHT22;3186;54.062;9.962;2023-07-20T07:33:06;20.30;99.90
6307;DHT22;3186;54.062;9.962;2023-07-20T07:35:32;20.20;99.90
6307;DHT22;3186;54.062;9.962;2023-07-20T07:37:58;20.30;99.90
6307;DHT22;3186;54.062;9.962;2023-07-20T07:40:23;20.40;99.90
6307;DHT22;3186;54.062;9.962;2023-07-20T07:42:49;20.10;99.90
6307;DHT22;3186;54.062;9.962;2023-07-20T07:45:18;19.00;99.90
6307;DHT22;3186;54.062;9.962;2023-07-20T07:47:44;18.00;99.90
6307;DHT22;3186;54.062;9.962;2023-07-20T07:50:10;20.00;99.90
6307;DHT22;3186;54.062;9.962;2023-07-20T07:52:35;20.20;99.90
6307;DHT22;3186;54.062;9.962;2023-07-20T07:55:01;20.40;99.90
6307;DHT22;3186;54.062;9.962;2023-07-20T07:57:29;20.40;99.90
6307;DHT22;3186;54.062;9.962;2023-07-20T07:59:55;20.50;99.90
6307;DHT22;3186;54.062;9.962;2023-07-20T08:02:20;20.60;99.90
6307;DHT22;3186;54.062;9.962;2023-07-20T08:04:46;20.20;99.90
6307;DHT22;3186;54.062;9.962;2023-07-20T08:07:12;20.40;99.90
6307;DHT22;3186;54.062;9.962;2023-07-20T08:09:38;20.60;99.90
6307;DHT22;3186;54.062;9.962;2023-07-20T08:12:04;20.60;99.90
6307;DHT22;3186;54.062;9.962;2023-07-20T08:14:29;20.10;99.90
6307;DHT22;3186;54.062;9.962;2023-07-20T08:16:55;20.30;99.90
6307;DHT22;3186;54.062;9.962;2023-07-20T08:19:21;20.30;99.90
6307;DHT22;3186;54.062;9.962;2023-07-20T08:21:47;20.30;99.90
6307;DHT22;3186;54.062;9.962;2023-07-20T08:24:12;20.30;99.90
6307;DHT22;3186;54.062;9.962;2023-07-20T08:26:38;20.10;99.90
6307;DHT22;3186;54.062;9.962;2023-07-20T08:29:03;20.20;99.90
6307;DHT22;3186;54.062;9.962;2023-07-20T08:31:29;20.30;99.90
6307;DHT22;3186;54.062;9.962;2023-07-20T08:33:55;20.40;99.90
6307;DHT22;3186;54.062;9.962;2023-07-20T08:36:22;20.40;99.90
6307;DHT22;3186;54.062;9.962;2023-07-20T08:38:48;20.60;99.90
6307;DHT22;3186;54.062;9.962;2023-07-20T08:41:14;20.50;99.90
6307;DHT22;3186;54.062;9.962;2023-07-20T08:43:42;20.80;99.90
6307;DHT22;3186;54.062;9.962;2023-07-20T08:46:11;21.40;99.90
6307;DHT22;3186;54.062;9.962;2023-07-20T08:48:39;21.40;99.90
6307;DHT22;3186;54.062;9.962;2023-07-20T08:51:05;21.30;99.90
6307;DHT22;3186;54.062;9.962;2023-07-20T08:53:32;20.90;99.90
6307;DHT22;3186;54.062;9.962;2023-07-20T08:55:59;20.90;99.90
6307;DHT22;3186;54.062;9.962;2023-07-20T08:58:26;20.80;99.90
6307;DHT22;3186;54.062;9.962;2023-07-20T09:00:54;21.20;99.90
6307;DHT22;3186;54.062;9.962;2023-07-20T09:03:21;21.50;99.90
6307;DHT22;3186;54.062;9.962;2023-07-20T09:05:47;21.70;99.90
6307;DHT22;3186;54.062;9.962;2023-07-20T09:08:13;21.60;99.90
6307;DHT22;3186;54.062;9.962;2023-07-20T09:10:39;21.60;99.90
6307;DHT22;3186;54.062;9.962;2023-07-20T09:13:05;21.90;99.90
6307;DHT22;3186;54.062;9.962;2023-07-20T09:15:30;22.50;97.90
6307;DHT22;3186;54.062;9.962;2023-07-20T09:17:56;22.50;98.90
6307;DHT22;3186;54.062;9.962;2023-07-20T09:20:26;22.20;98.60
6307;DHT22;3186;54.062;9.962;2023-07-20T09:22:52;21.90;99.90
6307;DHT22;3186;54.062;9.962;2023-07-20T09:25:20;21.90;99.90
6307;DHT22;3186;54.062;9.962;2023-07-20T09:27:47;22.10;99.90
6307;DHT22;3186;54.062;9.962;2023-07-20T09:30:15;22.40;99.90
6307;DHT22;3186;54.062;9.962;2023-07-20T09:32:43;22.10;99.90
6307;DHT22;3186;54.062;9.962;2023-07-20T09:35:16;22.30;99.90
6307;DHT22;3186;54.062;9.962;2023-07-20T09:37:59;22.50;98.20
6307;DHT22;3186;54.062;9.962;2023-07-20T09:40:28;22.60;99.90
6307;DHT22;3186;54.062;9.962;2023-07-20T09:42:55;22.70;99.90
6307;DHT22;3186;54.062;9.962;2023-07-20T09:45:39;22.60;99.90
6307;DHT22;3186;54.062;9.962;2023-07-20T09:48:06;22.90;99.90
6307;DHT22;3186;54.062;9.962;2023-07-20T09:50:40;23.10;99.90
6307;DHT22;3186;54.062;9.962;2023-07-20T09:53:09;23.20;99.90
6307;DHT22;3186;54.062;9.962;2023-07-20T09:55:36;23.40;99.90
6307;DHT22;3186;54.062;9.962;2023-07-20T09:58:03;23.30;99.90
6307;DHT22;3186;54.062;9.962;2023-07-20T10:00:29;23.40;99.90
6307;DHT22;3186;54.062;9.962;2023-07-20T10:02:56;23.20;99.90
6307;DHT22;3186;54.062;9.962;2023-07-20T10:05:24;23.10;99.90
6307;DHT22;3186;54.062;9.962;2023-07-20T10:07:53;23.10;99.90
6307;DHT22;3186;54.062;9.962;2023-07-20T10:10:20;23.00;99.90
6307;DHT22;3186;54.062;9.962;2023-07-20T10:12:50;22.90;99.90
6307;DHT22;3186;54.062;9.962;2023-07-20T10:15:36;22.80;99.90
6307;DHT22;3186;54.062;9.962;2023-07-20T10:18:12;23.00;99.90
6307;DHT22;3186;54.062;9.962;2023-07-20T10:20:40;23.00;99.90
6307;DHT22;3186;54.062;9.962;2023-07-20T10:23:09;23.10;99.90
6307;DHT22;3186;54.062;9.962;2023-07-20T10:25:35;23.00;99.90
6307;DHT22;3186;54.062;9.962;2023-07-20T10:28:07;23.00;99.90
6307;DHT22;3186;54.062;9.962;2023-07-20T10:30:34;22.70;99.90
6307;DHT22;3186;54.062;9.962;2023-07-20T10:33:02;22.80;99.90
6307;DHT22;3186;54.062;9.962;2023-07-20T10:35:28;22.70;99.90
6307;DHT22;3186;54.062;9.962;2023-07-20T10:38:04;22.50;99.90
6307;DHT22;3186;54.062;9.962;2023-07-20T10:40:34;22.60;99.90
6307;DHT22;3186;54.062;9.962;2023-07-20T10:43:05;22.70;99.90
6307;DHT22;3186;54.062;9.962;2023-07-20T10:45:34;22.20;99.90
6307;DHT22;3186;54.062;9.962;2023-07-20T10:48:14;22.50;99.90
6307;DHT22;3186;54.062;9.962;2023-07-20T10:50:42;22.30;99.90
6307;DHT22;3186;54.062;9.962;2023-07-20T10:53:17;22.10;99.90
6307;DHT22;3186;54.062;9.962;2023-07-20T10:55:44;22.30;99.90
6307;DHT22;3186;54.062;9.962;2023-07-20T10:58:14;22.00;99.90
6307;DHT22;3186;54.062;9.962;2023-07-20T11:01:05;21.50;99.90
6307;DHT22;3186;54.062;9.962;2023-07-20T11:03:39;21.80;99.90
6307;DHT22;3186;54.062;9.962;2023-07-20T11:09:02;21.80;99.90
6307;DHT22;3186;54.062;9.962;2023-07-20T11:11:34;22.00;99.90
6307;DHT22;3186;54.062;9.962;2023-07-20T11:14:02;22.20;99.90
6307;DHT22;3186;54.062;9.962;2023-07-20T11:16:39;22.00;99.90
6307;DHT22;3186;54.062;9.962;2023-07-20T11:19:12;22.00;99.90
6307;DHT22;3186;54.062;9.962;2023-07-20T11:21:41;22.10;99.90
6307;DHT22;3186;54.062;9.962;2023-07-20T11:24:07;22.20;99.90
6307;DHT22;3186;54.062;9.962;2023-07-20T11:29:11;22.20;99.90
6307;DHT22;3186;54.062;9.962;2023-07-20T11:31:38;22.20;99.90
6307;DHT22;3186;54.062;9.962;2023-07-20T11:34:05;22.10;99.90
6307;DHT22;3186;54.062;9.962;2023-07-20T11:36:31;22.10;99.90
6307;DHT22;3186;54.062;9.962;2023-07-20T11:38:58;22.10;99.90
6307;DHT22;3186;54.062;9.962;2023-07-20T11:41:25;22.20;99.90
6307;DHT22;3186;54.062;9.962;2023-07-20T11:43:53;22.10;99.90
6307;DHT22;3186;54.062;9.962;2023-07-20T11:46:19;22.30;99.90
6307;DHT22;3186;54.062;9.962;2023-07-20T11:48:45;22.40;99.90
6307;DHT22;3186;54.062;9.962;2023-07-20T11:51:17;22.70;99.90
6307;DHT22;3186;54.062;9.962;2023-07-20T11:53:44;22.80;99.90
6307;DHT22;3186;54.062;9.962;2023-07-20T11:56:12;22.80;99.90
6307;DHT22;3186;54.062;9.962;2023-07-20T11:58:44;22.80;99.90
6307;DHT22;3186;54.062;9.962;2023-07-20T12:01:15;23.10;99.90
6307;DHT22;3186;54.062;9.962;2023-07-20T12:03:44;22.50;99.90
6307;DHT22;3186;54.062;9.962;2023-07-20T12:06:10;22.70;99.90
6307;DHT22;3186;54.062;9.962;2023-07-20T12:08:43;22.60;99.90
6307;DHT22;3186;54.062;9.962;2023-07-20T12:11:10;22.70;99.90
6307;DHT22;3186;54.062;9.962;2023-07-20T12:13:58;22.50;99.90
6307;DHT22;3186;54.062;9.962;2023-07-20T12:16:27;22.90;99.90
6307;DHT22;3186;54.062;9.962;2023-07-20T12:19:10;22.40;99.90
6307;DHT22;3186;54.062;9.962;2023-07-20T12:21:38;22.40;99.90
6307;DHT22;3186;54.062;9.962;2023-07-20T12:24:06;22.70;99.90
6307;DHT22;3186;54.062;9.962;2023-07-20T12:26:33;22.90;99.90
6307;DHT22;3186;54.062;9.962;2023-07-20T12:29:00;22.90;99.90
6307;DHT22;3186;54.062;9.962;2023-07-20T12:31:27;22.70;99.90
6307;DHT22;3186;54.062;9.962;2023-07-20T12:33:54;22.50;99.90
6307;DHT22;3186;54.062;9.962;2023-07-20T12:36:23;22.60;99.90
6307;DHT22;3186;54.062;9.962;2023-07-20T12:38:49;22.60;99.90
6307;DHT22;3186;54.062;9.962;2023-07-20T12:41:14;22.70;99.90
6307;DHT22;3186;54.062;9.962;2023-07-20T12:43:41;22.50;99.90
6307;DHT22;3186;54.062;9.962;2023-07-20T12:46:08;22.20;99.90
6307;DHT22;3186;54.062;9.962;2023-07-20T12:48:35;22.20;99.90
6307;DHT22;3186;54.062;9.962;2023-07-20T12:51:03;22.40;99.90
6307;DHT22;3186;54.062;9.962;2023-07-20T12:53:30;22.50;99.90
6307;DHT22;3186;54.062;9.962;2023-07-20T12:55:56;22.30;99.90
6307;DHT22;3186;54.062;9.962;2023-07-20T12:58:21;22.50;99.90
6307;DHT22;3186;54.062;9.962;2023-07-20T13:00:47;22.50;99.90
6307;DHT22;3186;54.062;9.962;2023-07-20T13:03:13;22.40;99.90
6307;DHT22;3186;54.062;9.962;2023-07-20T13:05:40;22.50;99.90
6307;DHT22;3186;54.062;9.962;2023-07-20T13:08:06;22.40;99.90
6307;DHT22;3186;54.062;9.962;2023-07-20T13:10:31;22.40;99.90
6307;DHT22;3186;54.062;9.962;2023-07-20T13:12:58;22.30;99.90
6307;DHT22;3186;54.062;9.962;2023-07-20T13:15:30;22.30;99.90
6307;DHT22;3186;54.062;9.962;2023-07-20T13:17:59;22.40;99.90
6307;DHT22;3186;54.062;9.962;2023-07-20T13:20:26;22.30;99.90
6307;DHT22;3186;54.062;9.962;2023-07-20T13:22:53;22.40;99.90
6307;DHT22;3186;54.062;9.962;2023-07-20T13:25:19;22.40;99.90
6307;DHT22;3186;54.062;9.962;2023-07-20T13:27:45;22.30;99.90
6307;DHT22;3186;54.062;9.962;2023-07-20T13:30:11;22.40;99.90
6307;DHT22;3186;54.062;9.962;2023-07-20T13:32:43;22.60;99.90
6307;DHT22;3186;54.062;9.962;2023-07-20T13:35:09;22.60;99.90
6307;DHT22;3186;54.062;9.962;2023-07-20T13:37:35;22.40;99.90
6307;DHT22;3186;54.062;9.962;2023-07-20T13:40:01;22.60;99.90
6307;DHT22;3186;54.062;9.962;2023-07-20T13:42:27;22.90;99.90
6307;DHT22;3186;54.062;9.962;2023-07-20T13:44:53;23.10;99.90
6307;DHT22;3186;54.062;9.962;2023-07-20T13:47:19;23.40;99.90
6307;DHT22;3186;54.062;9.962;2023-07-20T13:49:44;23.40;99.90
6307;DHT22;3186;54.062;9.962;2023-07-20T13:52:10;23.40;99.90
6307;DHT22;3186;54.062;9.962;2023-07-20T13:54:36;23.30;99.90
6307;DHT22;3186;54.062;9.962;2023-07-20T13:57:02;23.30;99.90
6307;DHT22;3186;54.062;9.962;2023-07-20T13:59:28;23.20;99.90
6307;DHT22;3186;54.062;9.962;2023-07-20T14:01:53;23.20;86.90
6307;DHT22;3186;54.062;9.962;2023-07-20T14:04:19;23.30;92.80
6307;DHT22;3186;54.062;9.962;2023-07-20T14:06:45;23.40;96.40
6307;DHT22;3186;54.062;9.962;2023-07-20T14:09:12;23.60;91.90
6307;DHT22;3186;54.062;9.962;2023-07-20T14:11:38;23.20;77.50
6307;DHT22;3186;54.062;9.962;2023-07-20T14:14:03;23.50;99.90
6307;DHT22;3186;54.062;9.962;2023-07-20T14:16:29;23.40;95.50
6307;DHT22;3186;54.062;9.962;2023-07-20T14:18:55;23.20;99.10
6307;DHT22;3186;54.062;9.962;2023-07-20T14:21:21;23.10;99.90
6307;DHT22;3186;54.062;9.962;2023-07-20T14:23:48;23.00;99.90
6307;DHT22;3186;54.062;9.962;2023-07-20T14:26:15;23.20;95.20
6307;DHT22;3186;54.062;9.962;2023-07-20T14:28:41;23.40;99.90
6307;DHT22;3186;54.062;9.962;2023-07-20T14:31:07;23.20;99.90
6307;DHT22;3186;54.062;9.962;2023-07-20T14:33:33;23.10;96.50
6307;DHT22;3186;54.062;9.962;2023-07-20T14:35:59;23.10;99.70
6307;DHT22;3186;54.062;9.962;2023-07-20T14:38:30;23.00;99.90
6307;DHT22;3186;54.062;9.962;2023-07-20T14:40:56;22.60;99.80
6307;DHT22;3186;54.062;9.962;2023-07-20T14:43:22;22.70;99.90
6307;DHT22;3186;54.062;9.962;2023-07-20T14:45:48;22.90;99.90
6307;DHT22;3186;54.062;9.962;2023-07-20T14:48:14;22.70;99.90
6307;DHT22;3186;54.062;9.962;2023-07-20T14:50:40;22.60;99.90
6307;DHT22;3186;54.062;9.962;2023-07-20T14:53:06;22.40;99.90
6307;DHT22;3186;54.062;9.962;2023-07-20T14:55:33;22.60;99.90
6307;DHT22;3186;54.062;9.962;2023-07-20T14:57:59;22.50;99.90
6307;DHT22;3186;54.062;9.962;2023-07-20T15:00:25;22.40;99.90
6307;DHT22;3186;54.062;9.962;2023-07-20T15:02:51;22.40;99.80
6307;DHT22;3186;54.062;9.962;2023-07-20T15:05:24;22.60;99.90
6307;DHT22;3186;54.062;9.962;2023-07-20T15:07:52;22.50;98.90
6307;DHT22;3186;54.062;9.962;2023-07-20T15:10:18;22.50;98.50
6307;DHT22;3186;54.062;9.962;2023-07-20T15:12:44;22.60;96.50
6307;DHT22;3186;54.062;9.962;2023-07-20T15:15:12;22.30;99.90
6307;DHT22;3186;54.062;9.962;2023-07-20T15:17:43;22.20;98.40
6307;DHT22;3186;54.062;9.962;2023-07-20T15:20:11;22.20;99.90
6307;DHT22;3186;54.062;9.962;2023-07-20T15:22:37;22.30;99.90
6307;DHT22;3186;54.062;9.962;2023-07-20T15:25:07;22.30;99.90
6307;DHT22;3186;54.062;9.962;2023-07-20T15:27:33;22.30;99.90
6307;DHT22;3186;54.062;9.962;2023-07-20T15:30:00;22.30;98.50
6307;DHT22;3186;54.062;9.962;2023-07-20T15:32:26;22.20;96.00
6307;DHT22;3186;54.062;9.962;2023-07-20T15:34:51;22.30;76.20
6307;DHT22;3186;54.062;9.962;2023-07-20T15:37:17;22.30;91.00
6307;DHT22;3186;54.062;9.962;2023-07-20T15:39:43;22.20;82.60
6307;DHT22;3186;54.062;9.962;2023-07-20T15:42:09;22.50;92.20
6307;DHT22;3186;54.062;9.962;2023-07-20T15:44:35;22.40;92.70
6307;DHT22;3186;54.062;9.962;2023-07-20T15:47:01;22.20;91.50
6307;DHT22;3186;54.062;9.962;2023-07-20T15:49:28;22.60;93.70
6307;DHT22;3186;54.062;9.962;2023-07-20T15:51:54;22.70;92.90
6307;DHT22;3186;54.062;9.962;2023-07-20T15:54:20;22.40;95.00
6307;DHT22;3186;54.062;9.962;2023-07-20T15:56:46;22.40;95.10
6307;DHT22;3186;54.062;9.962;2023-07-20T15:59:14;22.70;97.90
6307;DHT22;3186;54.062;9.962;2023-07-20T16:01:41;22.80;93.80
6307;DHT22;3186;54.062;9.962;2023-07-20T16:04:08;22.70;93.00
6307;DHT22;3186;54.062;9.962;2023-07-20T16:06:34;23.10;94.00
6307;DHT22;3186;54.062;9.962;2023-07-20T16:09:02;22.60;63.00
6307;DHT22;3186;54.062;9.962;2023-07-20T16:11:33;22.70;91.00
6307;DHT22;3186;54.062;9.962;2023-07-20T16:14:00;22.70;92.00
6307;DHT22;3186;54.062;9.962;2023-07-20T16:16:28;23.10;84.40